sensor_id;sensor_type;location;lat;lon;timestamp;temperature;humidity
50907;DHT22;36882;27.680;85.304;2022-09-01T00:01:00;24.60;99.90
50907;DHT22;36882;27.680;85.304;2022-09-01T00:03:34;24.60;99.90
50907;DHT22;36882;27.680;85.304;2022-09-01T00:06:04;24.60;99.90
50907;DHT22;36882;27.680;85.304;2022-09-01T00:08:40;24.60;99.90
50907;DHT22;36882;27.680;85.304;2022-09-01T00:11:10;24.60;99.90
50907;DHT22;36882;27.680;85.304;2022-09-01T00:13:41;24.50;99.90
50907;DHT22;36882;27.680;85.304;2022-09-01T00:16:13;24.60;99.90
50907;DHT22;36882;27.680;85.304;2022-09-01T00:18:49;24.60;99.90
50907;DHT22;36882;27.680;85.304;2022-09-01T00:21:24;24.70;99.90
50907;DHT22;36882;27.680;85.304;2022-09-01T00:23:55;24.60;99.90
50907;DHT22;36882;27.680;85.304;2022-09-01T00:26:26;24.60;99.90
50907;DHT22;36882;27.680;85.304;2022-09-01T00:28:56;24.60;99.90
50907;DHT22;36882;27.680;85.304;2022-09-01T00:31:27;24.60;99.90
50907;DHT22;36882;27.680;85.304;2022-09-01T00:33:57;24.60;99.90
50907;DHT22;36882;27.680;85.304;2022-09-01T00:36:28;24.70;99.90
50907;DHT22;36882;27.680;85.304;2022-09-01T00:39:00;24.60;99.90
50907;DHT22;36882;27.680;85.304;2022-09-01T00:41:32;24.60;99.90
50907;DHT22;36882;27.680;85.304;2022-09-01T00:44:07;24.60;99.90
50907;DHT22;36882;27.680;85.304;2022-09-01T00:46:40;24.70;99.90
50907;DHT22;36882;27.680;85.304;2022-09-01T00:49:35;24.70;99.90
50907;DHT22;36882;27.680;85.304;2022-09-01T00:54:57;24.70;99.90
50907;DHT22;36882;27.680;85.304;2022-09-01T00:57:28;24.70;99.90
50907;DHT22;36882;27.680;85.304;2022-09-01T01:00:10;24.70;99.90
50907;DHT22;36882;27.680;85.304;2022-09-01T01:02:41;24.60;99.90
50907;DHT22;36882;27.680;85.304;2022-09-01T01:05:14;24.70;99.90
50907;DHT22;36882;27.680;85.304;2022-09-01T01:07:44;24.70;99.90
50907;DHT22;36882;27.680;85.304;2022-09-01T01:10:18;24.60;99.90
50907;DHT22;36882;27.680;85.304;2022-09-01T01:12:52;24.70;99.90
50907;DHT22;36882;27.680;85.304;2022-09-01T01:15:22;24.80;99.90
50907;DHT22;36882;27.680;85.304;2022-09-01T01:17:53;24.80;99.90
50907;DHT22;36882;27.680;85.304;2022-09-01T01:20:27;24.80;99.90
50907;DHT22;36882;27.680;85.304;2022-09-01T01:23:29;24.90;99.90
50907;DHT22;36882;27.680;85.304;2022-09-01T01:26:07;24.90;99.90
50907;DHT22;36882;27.680;85.304;2022-09-01T01:28:40;24.90;99.90
50907;DHT22;36882;27.680;85.304;2022-09-01T01:31:14;24.90;99.90
50907;DHT22;36882;27.680;85.304;2022-09-01T01:33:50;24.90;99.90
50907;DHT22;36882;27.680;85.304;2022-09-01T01:36:24;24.90;99.90
50907;DHT22;36882;27.680;85.304;2022-09-01T01:39:10;25.00;99.90
50907;DHT22;36882;27.680;85.304;2022-09-01T01:41:42;25.00;99.90
50907;DHT22;36882;27.680;85.304;2022-09-01T01:44:21;25.10;99.90
50907;DHT22;36882;27.680;85.304;2022-09-01T01:46:56;25.10;99.90
50907;DHT22;36882;27.680;85.304;2022-09-01T01:49:27;25.20;99.90
50907;DHT22;36882;27.680;85.304;2022-09-01T01:51:59;25.20;99.90
50907;DHT22;36882;27.680;85.304;2022-09-01T02:10:05;25.40;99.50
50907;DHT22;36882;27.680;85.304;2022-09-01T02:26:09;25.60;99.80
50907;DHT22;36882;27.680;85.304;2022-09-01T02:28:46;25.60;99.20
50907;DHT22;36882;27.680;85.304;2022-09-01T02:31:22;25.70;99.10
50907;DHT22;36882;27.680;85.304;2022-09-01T02:37:07;25.70;99.20
50907;DHT22;36882;27.680;85.304;2022-09-01T02:39:37;25.80;98.40
50907;DHT22;36882;27.680;85.304;2022-09-01T02:42:07;25.70;98.50
50907;DHT22;36882;27.680;85.304;2022-09-01T02:44:39;25.80;98.70
50907;DHT22;36882;27.680;85.304;2022-09-01T02:47:12;25.80;98.80
50907;DHT22;36882;27.680;85.304;2022-09-01T02:49:42;25.90;99.20
50907;DHT22;36882;27.680;85.304;2022-09-01T02:52:13;26.00;99.20
50907;DHT22;36882;27.680;85.304;2022-09-01T04:03:08;26.10;99.90
50907;DHT22;36882;27.680;85.304;2022-09-01T04:36:41;27.20;97.90
50907;DHT22;36882;27.680;85.304;2022-09-01T04:39:16;27.50;96.70
50907;DHT22;36882;27.680;85.304;2022-09-01T04:41:46;27.40;96.80
50907;DHT22;36882;27.680;85.304;2022-09-01T05:17:29;26.90;96.90
50907;DHT22;36882;27.680;85.304;2022-09-01T05:35:48;26.30;98.00
50907;DHT22;36882;27.680;85.304;2022-09-01T05:38:23;26.10;98.80
50907;DHT22;36882;27.680;85.304;2022-09-01T05:41:00;26.10;98.70
50907;DHT22;36882;27.680;85.304;2022-09-01T05:47:13;25.90;99.40
50907;DHT22;36882;27.680;85.304;2022-09-01T05:49:48;25.90;99.50
50907;DHT22;36882;27.680;85.304;2022-09-01T05:52:19;26.00;99.30
50907;DHT22;36882;27.680;85.304;2022-09-01T05:54:58;26.00;99.00
50907;DHT22;36882;27.680;85.304;2022-09-01T05:57:30;26.00;99.50
50907;DHT22;36882;27.680;85.304;2022-09-01T06:00:06;26.00;99.70
50907;DHT22;36882;27.680;85.304;2022-09-01T06:03:19;26.00;99.90
50907;DHT22;36882;27.680;85.304;2022-09-01T06:21:53;26.10;97.80
50907;DHT22;36882;27.680;85.304;2022-09-01T06:33:01;26.60;97.90
50907;DHT22;36882;27.680;85.304;2022-09-01T06:35:36;26.90;97.30
50907;DHT22;36882;27.680;85.304;2022-09-01T06:38:10;27.10;97.00
50907;DHT22;36882;27.680;85.304;2022-09-01T06:40:41;27.20;96.70
50907;DHT22;36882;27.680;85.304;2022-09-01T07:06:28;28.00;93.10
50907;DHT22;36882;27.680;85.304;2022-09-01T07:09:19;27.70;93.90
50907;DHT22;36882;27.680;85.304;2022-09-01T07:12:10;27.80;93.80
50907;DHT22;36882;27.680;85.304;2022-09-01T07:14:58;27.80;92.90
50907;DHT22;36882;27.680;85.304;2022-09-01T07:17:52;27.70;93.10
50907;DHT22;36882;27.680;85.304;2022-09-01T07:20:26;27.80;93.30
50907;DHT22;36882;27.680;85.304;2022-09-01T07:47:43;27.90;93.60
50907;DHT22;36882;27.680;85.304;2022-09-01T07:50:21;28.10;92.70
50907;DHT22;36882;27.680;85.304;2022-09-01T07:53:20;28.10;92.50
50907;DHT22;36882;27.680;85.304;2022-09-01T07:55:53;28.10;92.50
50907;DHT22;36882;27.680;85.304;2022-09-01T07:58:27;27.90;92.30
50907;DHT22;36882;27.680;85.304;2022-09-01T08:08:29;28.10;93.00
50907;DHT22;36882;27.680;85.304;2022-09-01T08:11:02;28.10;91.30
50907;DHT22;36882;27.680;85.304;2022-09-01T08:13:35;28.10;91.50
50907;DHT22;36882;27.680;85.304;2022-09-01T08:16:09;28.00;91.60
50907;DHT22;36882;27.680;85.304;2022-09-01T08:18:45;28.10;92.80
50907;DHT22;36882;27.680;85.304;2022-09-01T08:25:14;28.20;90.90
50907;DHT22;36882;27.680;85.304;2022-09-01T08:27:51;28.20;91.80
50907;DHT22;36882;27.680;85.304;2022-09-01T08:30:28;28.20;90.70
50907;DHT22;36882;27.680;85.304;2022-09-01T08:33:01;28.50;90.70
50907;DHT22;36882;27.680;85.304;2022-09-01T08:51:29;29.00;91.60
50907;DHT22;36882;27.680;85.304;2022-09-01T08:54:09;29.30;91.30
50907;DHT22;36882;27.680;85.304;2022-09-01T08:57:00;29.30;91.40
50907;DHT22;36882;27.680;85.304;2022-09-01T08:59:31;29.10;91.70
50907;DHT22;36882;27.680;85.304;2022-09-01T09:05:07;29.10;91.50
50907;DHT22;36882;27.680;85.304;2022-09-01T09:11:15;29.00;90.60
50907;DHT22;36882;27.680;85.304;2022-09-01T09:42:01;28.80;91.50
50907;DHT22;36882;27.680;85.304;2022-09-01T09:48:30;28.90;90.60
50907;DHT22;36882;27.680;85.304;2022-09-01T09:51:21;28.90;90.60
50907;DHT22;36882;27.680;85.304;2022-09-01T09:57:43;29.00;90.20
50907;DHT22;36882;27.680;85.304;2022-09-01T10:00:33;28.90;90.70
50907;DHT22;36882;27.680;85.304;2022-09-01T10:03:08;28.90;91.10
50907;DHT22;36882;27.680;85.304;2022-09-01T10:09:14;29.00;91.50
50907;DHT22;36882;27.680;85.304;2022-09-01T10:27:22;28.90;90.80
50907;DHT22;36882;27.680;85.304;2022-09-01T10:30:07;29.10;90.30
50907;DHT22;36882;27.680;85.304;2022-09-01T11:02:08;28.80;91.30
50907;DHT22;36882;27.680;85.304;2022-09-01T11:09:04;28.90;91.30
50907;DHT22;36882;27.680;85.304;2022-09-01T11:15:40;28.70;91.50
50907;DHT22;36882;27.680;85.304;2022-09-01T11:28:43;28.50;92.00
50907;DHT22;36882;27.680;85.304;2022-09-01T11:43:55;28.20;92.00
50907;DHT22;36882;27.680;85.304;2022-09-01T11:46:36;28.00;92.10
50907;DHT22;36882;27.680;85.304;2022-09-01T11:49:28;27.90;92.30
50907;DHT22;36882;27.680;85.304;2022-09-01T11:52:00;27.80;92.30
50907;DHT22;36882;27.680;85.304;2022-09-01T11:54:39;27.70;92.10
50907;DHT22;36882;27.680;85.304;2022-09-01T11:57:24;27.60;92.40
50907;DHT22;36882;27.680;85.304;2022-09-01T13:28:25;26.00;97.30
50907;DHT22;36882;27.680;85.304;2022-09-01T13:30:58;26.00;97.50
50907;DHT22;36882;27.680;85.304;2022-09-01T13:33:49;26.00;97.50
50907;DHT22;36882;27.680;85.304;2022-09-01T13:36:40;26.00;97.40
50907;DHT22;36882;27.680;85.304;2022-09-01T13:39:15;26.00;97.10
50907;DHT22;36882;27.680;85.304;2022-09-01T13:45:47;26.00;97.20
50907;DHT22;36882;27.680;85.304;2022-09-01T13:48:20;25.90;97.00
50907;DHT22;36882;27.680;85.304;2022-09-01T13:50:51;25.90;97.20
50907;DHT22;36882;27.680;85.304;2022-09-01T13:53:41;25.80;97.20
50907;DHT22;36882;27.680;85.304;2022-09-01T13:56:12;25.90;97.10
50907;DHT22;36882;27.680;85.304;2022-09-01T13:58:42;25.80;97.10
50907;DHT22;36882;27.680;85.304;2022-09-01T14:01:14;25.80;97.30
50907;DHT22;36882;27.680;85.304;2022-09-01T14:03:45;25.80;97.10
50907;DHT22;36882;27.680;85.304;2022-09-01T14:06:19;25.90;97.10
50907;DHT22;36882;27.680;85.304;2022-09-01T14:08:49;25.90;97.10
50907;DHT22;36882;27.680;85.304;2022-09-01T14:11:20;25.90;97.30
50907;DHT22;36882;27.680;85.304;2022-09-01T14:13:50;25.80;97.00
50907;DHT22;36882;27.680;85.304;2022-09-01T14:16:21;25.90;96.90
50907;DHT22;36882;27.680;85.304;2022-09-01T14:18:51;25.90;97.10
50907;DHT22;36882;27.680;85.304;2022-09-01T14:21:22;25.80;97.10
50907;DHT22;36882;27.680;85.304;2022-09-01T14:23:52;25.80;97.10
50907;DHT22;36882;27.680;85.304;2022-09-01T14:26:23;25.90;97.10
50907;DHT22;36882;27.680;85.304;2022-09-01T14:28:55;25.90;97.00
50907;DHT22;36882;27.680;85.304;2022-09-01T14:31:27;25.80;97.20
50907;DHT22;36882;27.680;85.304;2022-09-01T14:33:59;25.70;97.40
50907;DHT22;36882;27.680;85.304;2022-09-01T14:36:33;25.70;97.50
50907;DHT22;36882;27.680;85.304;2022-09-01T14:39:03;25.70;97.70
50907;DHT22;36882;27.680;85.304;2022-09-01T14:41:34;25.70;97.90
50907;DHT22;36882;27.680;85.304;2022-09-01T14:44:04;25.70;97.90
50907;DHT22;36882;27.680;85.304;2022-09-01T14:46:35;25.70;97.80
50907;DHT22;36882;27.680;85.304;2022-09-01T14:49:08;25.80;97.60
50907;DHT22;36882;27.680;85.304;2022-09-01T14:51:48;25.90;97.40
50907;DHT22;36882;27.680;85.304;2022-09-01T14:54:39;25.90;97.40
50907;DHT22;36882;27.680;85.304;2022-09-01T14:57:15;25.80;97.40
50907;DHT22;36882;27.680;85.304;2022-09-01T15:00:07;25.80;97.80
50907;DHT22;36882;27.680;85.304;2022-09-01T15:02:44;25.80;97.90
50907;DHT22;36882;27.680;85.304;2022-09-01T15:05:14;25.80;98.00
50907;DHT22;36882;27.680;85.304;2022-09-01T15:07:52;25.80;97.80
50907;DHT22;36882;27.680;85.304;2022-09-01T15:10:24;25.80;97.70
50907;DHT22;36882;27.680;85.304;2022-09-01T15:13:01;25.70;97.80
50907;DHT22;36882;27.680;85.304;2022-09-01T15:15:32;25.60;98.10
50907;DHT22;36882;27.680;85.304;2022-09-01T15:18:05;25.60;98.10
50907;DHT22;36882;27.680;85.304;2022-09-01T15:20:41;25.60;98.10
50907;DHT22;36882;27.680;85.304;2022-09-01T15:23:19;25.50;98.20
50907;DHT22;36882;27.680;85.304;2022-09-01T15:25:52;25.50;98.40
50907;DHT22;36882;27.680;85.304;2022-09-01T15:28:34;25.50;98.30
50907;DHT22;36882;27.680;85.304;2022-09-01T15:31:05;25.40;98.40
50907;DHT22;36882;27.680;85.304;2022-09-01T15:33:36;25.50;98.40
50907;DHT22;36882;27.680;85.304;2022-09-01T15:36:07;25.40;98.40
50907;DHT22;36882;27.680;85.304;2022-09-01T15:38:38;25.40;98.30
50907;DHT22;36882;27.680;85.304;2022-09-01T15:41:08;25.40;98.40
50907;DHT22;36882;27.680;85.304;2022-09-01T15:43:39;25.40;98.60
50907;DHT22;36882;27.680;85.304;2022-09-01T15:46:09;25.40;98.70
50907;DHT22;36882;27.680;85.304;2022-09-01T15:48:41;25.40;98.90
50907;DHT22;36882;27.680;85.304;2022-09-01T15:51:34;25.40;98.80
50907;DHT22;36882;27.680;85.304;2022-09-01T15:54:10;25.30;98.70
50907;DHT22;36882;27.680;85.304;2022-09-01T15:56:40;25.30;98.70
50907;DHT22;36882;27.680;85.304;2022-09-01T15:59:11;25.30;98.50
50907;DHT22;36882;27.680;85.304;2022-09-01T16:01:44;25.30;98.70
50907;DHT22;36882;27.680;85.304;2022-09-01T16:04:16;25.30;98.60
50907;DHT22;36882;27.680;85.304;2022-09-01T16:06:52;25.40;98.40
50907;DHT22;36882;27.680;85.304;2022-09-01T16:09:25;25.30;98.40
50907;DHT22;36882;27.680;85.304;2022-09-01T16:11:56;25.40;98.40
50907;DHT22;36882;27.680;85.304;2022-09-01T16:14:27;25.40;98.40
50907;DHT22;36882;27.680;85.304;2022-09-01T16:17:19;25.30;98.30
50907;DHT22;36882;27.680;85.304;2022-09-01T16:19:58;25.40;98.20
50907;DHT22;36882;27.680;85.304;2022-09-01T16:22:35;25.40;98.30
50907;DHT22;36882;27.680;85.304;2022-09-01T16:25:15;25.40;98.20
50907;DHT22;36882;27.680;85.304;2022-09-01T16:27:46;25.40;98.10
50907;DHT22;36882;27.680;85.304;2022-09-01T16:30:24;25.40;98.30
50907;DHT22;36882;27.680;85.304;2022-09-01T16:32:58;25.40;98.10
50907;DHT22;36882;27.680;85.304;2022-09-01T16:35:41;25.30;98.10
50907;DHT22;36882;27.680;85.304;2022-09-01T16:38:43;25.20;98.30
50907;DHT22;36882;27.680;85.304;2022-09-01T16:41:32;25.20;98.60
50907;DHT22;36882;27.680;85.304;2022-09-01T16:54:23;25.20;98.20
50907;DHT22;36882;27.680;85.304;2022-09-01T16:56:47;25.10;98.40
50907;DHT22;36882;27.680;85.304;2022-09-01T16:59:36;25.20;98.20
50907;DHT22;36882;27.680;85.304;2022-09-01T17:02:51;25.20;98.40
50907;DHT22;36882;27.680;85.304;2022-09-01T17:05:25;25.20;98.10
50907;DHT22;36882;27.680;85.304;2022-09-01T17:11:08;25.20;98.30
50907;DHT22;36882;27.680;85.304;2022-09-01T17:13:43;25.10;98.30
50907;DHT22;36882;27.680;85.304;2022-09-01T17:16:29;25.10;98.50
50907;DHT22;36882;27.680;85.304;2022-09-01T17:19:09;25.00;98.80
50907;DHT22;36882;27.680;85.304;2022-09-01T17:21:48;24.90;99.00
50907;DHT22;36882;27.680;85.304;2022-09-01T17:24:41;25.00;99.00
50907;DHT22;36882;27.680;85.304;2022-09-01T17:27:35;24.90;98.90
50907;DHT22;36882;27.680;85.304;2022-09-01T17:30:07;25.00;99.00
50907;DHT22;36882;27.680;85.304;2022-09-01T17:33:02;25.00;99.10
50907;DHT22;36882;27.680;85.304;2022-09-01T17:36:05;25.00;99.10
50907;DHT22;36882;27.680;85.304;2022-09-01T17:38:56;25.00;99.00
50907;DHT22;36882;27.680;85.304;2022-09-01T17:41:46;25.00;99.00
50907;DHT22;36882;27.680;85.304;2022-09-01T17:44:40;24.90;99.10
50907;DHT22;36882;27.680;85.304;2022-09-01T17:50:46;25.00;99.00
50907;DHT22;36882;27.680;85.304;2022-09-01T17:53:44;24.90;99.10
50907;DHT22;36882;27.680;85.304;2022-09-01T17:57:04;25.00;99.00
50907;DHT22;36882;27.680;85.304;2022-09-01T17:59:50;24.90;98.90
50907;DHT22;36882;27.680;85.304;2022-09-01T18:05:33;24.90;99.00
50907;DHT22;36882;27.680;85.304;2022-09-01T18:08:16;24.90;98.80
50907;DHT22;36882;27.680;85.304;2022-09-01T18:11:00;25.00;98.70
50907;DHT22;36882;27.680;85.304;2022-09-01T18:14:07;25.00;98.70
50907;DHT22;36882;27.680;85.304;2022-09-01T18:19:56;25.00;98.70
50907;DHT22;36882;27.680;85.304;2022-09-01T18:22:37;25.00;98.60
50907;DHT22;36882;27.680;85.304;2022-09-01T18:25:24;25.00;98.60
50907;DHT22;36882;27.680;85.304;2022-09-01T18:27:55;25.00;98.90
50907;DHT22;36882;27.680;85.304;2022-09-01T18:30:27;25.00;98.60
50907;DHT22;36882;27.680;85.304;2022-09-01T18:36:36;24.90;98.70
50907;DHT22;36882;27.680;85.304;2022-09-01T18:39:32;24.90;98.70
50907;DHT22;36882;27.680;85.304;2022-09-01T18:42:36;24.90;98.60
50907;DHT22;36882;27.680;85.304;2022-09-01T18:48:35;25.00;98.50
50907;DHT22;36882;27.680;85.304;2022-09-01T18:56:58;25.00;98.70
50907;DHT22;36882;27.680;85.304;2022-09-01T19:05:50;24.90;99.10
50907;DHT22;36882;27.680;85.304;2022-09-01T19:17:35;24.90;99.10
50907;DHT22;36882;27.680;85.304;2022-09-01T19:20:21;24.90;99.20
50907;DHT22;36882;27.680;85.304;2022-09-01T19:23:11;24.90;99.10
50907;DHT22;36882;27.680;85.304;2022-09-01T19:25:42;24.90;99.00
50907;DHT22;36882;27.680;85.304;2022-09-01T19:31:38;24.90;98.80
50907;DHT22;36882;27.680;85.304;2022-09-01T19:34:18;24.90;98.80
50907;DHT22;36882;27.680;85.304;2022-09-01T19:36:55;24.90;99.00
50907;DHT22;36882;27.680;85.304;2022-09-01T19:39:32;24.90;99.20
50907;DHT22;36882;27.680;85.304;2022-09-01T19:42:12;24.90;99.30
50907;DHT22;36882;27.680;85.304;2022-09-01T19:50:52;24.90;99.10
50907;DHT22;36882;27.680;85.304;2022-09-01T19:53:46;24.90;99.10
50907;DHT22;36882;27.680;85.304;2022-09-01T19:56:27;24.90;99.20
50907;DHT22;36882;27.680;85.304;2022-09-01T19:59:22;24.90;99.10
50907;DHT22;36882;27.680;85.304;2022-09-01T20:01:59;24.90;99.00
50907;DHT22;36882;27.680;85.304;2022-09-01T20:04:55;24.90;99.00
50907;DHT22;36882;27.680;85.304;2022-09-01T20:07:50;24.80;99.00
50907;DHT22;36882;27.680;85.304;2022-09-01T20:10:47;24.90;99.00
50907;DHT22;36882;27.680;85.304;2022-09-01T20:13:40;24.80;98.80
50907;DHT22;36882;27.680;85.304;2022-09-01T20:16:41;24.80;99.10
50907;DHT22;36882;27.680;85.304;2022-09-01T20:22:20;24.80;99.30
50907;DHT22;36882;27.680;85.304;2022-09-01T20:25:03;24.80;99.20
50907;DHT22;36882;27.680;85.304;2022-09-01T20:27:56;24.80;99.10
50907;DHT22;36882;27.680;85.304;2022-09-01T20:30:35;24.80;99.10
50907;DHT22;36882;27.680;85.304;2022-09-01T20:33:18;24.90;99.00
50907;DHT22;36882;27.680;85.304;2022-09-01T20:36:04;24.80;99.10
50907;DHT22;36882;27.680;85.304;2022-09-01T20:38:52;24.80;99.20
50907;DHT22;36882;27.680;85.304;2022-09-01T20:42:08;24.80;99.20
50907;DHT22;36882;27.680;85.304;2022-09-01T20:44:49;24.80;99.10
50907;DHT22;36882;27.680;85.304;2022-09-01T20:47:26;24.80;99.00
50907;DHT22;36882;27.680;85.304;2022-09-01T20:49:58;24.70;99.30
50907;DHT22;36882;27.680;85.304;2022-09-01T20:52:53;24.80;99.30
50907;DHT22;36882;27.680;85.304;2022-09-01T20:58:39;24.80;99.30
50907;DHT22;36882;27.680;85.304;2022-09-01T21:01:34;24.80;99.20
50907;DHT22;36882;27.680;85.304;2022-09-01T21:07:19;24.70;99.40
50907;DHT22;36882;27.680;85.304;2022-09-01T21:13:31;24.60;99.50
50907;DHT22;36882;27.680;85.304;2022-09-01T21:16:27;24.60;99.60
50907;DHT22;36882;27.680;85.304;2022-09-01T21:22:06;24.60;99.60
50907;DHT22;36882;27.680;85.304;2022-09-01T21:24:38;24.60;99.60
50907;DHT22;36882;27.680;85.304;2022-09-01T21:27:14;24.70;99.50
50907;DHT22;36882;27.680;85.304;2022-09-01T21:30:05;24.70;99.50
50907;DHT22;36882;27.680;85.304;2022-09-01T21:32:36;24.60;99.40
50907;DHT22;36882;27.680;85.304;2022-09-01T21:35:11;24.70;99.40
50907;DHT22;36882;27.680;85.304;2022-09-01T21:37:41;24.60;99.20
50907;DHT22;36882;27.680;85.304;2022-09-01T21:40:12;24.60;99.40
50907;DHT22;36882;27.680;85.304;2022-09-01T21:42:48;24.60;99.20
50907;DHT22;36882;27.680;85.304;2022-09-01T21:45:20;24.60;99.10
50907;DHT22;36882;27.680;85.304;2022-09-01T21:47:51;24.70;98.80
50907;DHT22;36882;27.680;85.304;2022-09-01T21:50:23;24.60;98.90
50907;DHT22;36882;27.680;85.304;2022-09-01T21:52:54;24.60;98.80
50907;DHT22;36882;27.680;85.304;2022-09-01T21:55:24;24.60;98.90
50907;DHT22;36882;27.680;85.304;2022-09-01T21:57:55;24.60;98.70
50907;DHT22;36882;27.680;85.304;2022-09-01T22:00:30;24.50;98.70
50907;DHT22;36882;27.680;85.304;2022-09-01T22:03:00;24.50;99.00
50907;DHT22;36882;27.680;85.304;2022-09-01T22:05:31;24.50;99.20
50907;DHT22;36882;27.680;85.304;2022-09-01T22:08:02;24.50;99.30
50907;DHT22;36882;27.680;85.304;2022-09-01T22:10:33;24.50;99.50
50907;DHT22;36882;27.680;85.304;2022-09-01T22:13:03;24.50;99.50
50907;DHT22;36882;27.680;85.304;2022-09-01T22:15:39;24.60;99.50
50907;DHT22;36882;27.680;85.304;2022-09-01T22:18:09;24.60;99.10
50907;DHT22;36882;27.680;85.304;2022-09-01T22:20:41;24.70;99.20
50907;DHT22;36882;27.680;85.304;2022-09-01T22:23:12;24.60;99.30
50907;DHT22;36882;27.680;85.304;2022-09-01T22:25:45;24.50;99.50
50907;DHT22;36882;27.680;85.304;2022-09-01T22:28:15;24.50;99.70
50907;DHT22;36882;27.680;85.304;2022-09-01T22:30:48;24.50;99.80
50907;DHT22;36882;27.680;85.304;2022-09-01T22:33:21;24.50;99.80
50907;DHT22;36882;27.680;85.304;2022-09-01T22:35:53;24.50;99.90
50907;DHT22;36882;27.680;85.304;2022-09-01T22:38:25;24.50;99.70
50907;DHT22;36882;27.680;85.304;2022-09-01T22:40:56;24.50;99.30
50907;DHT22;36882;27.680;85.304;2022-09-01T22:43:29;24.60;99.40
50907;DHT22;36882;27.680;85.304;2022-09-01T22:45:59;24.60;99.50
50907;DHT22;36882;27.680;85.304;2022-09-01T22:48:29;24.60;99.60
50907;DHT22;36882;27.680;85.304;2022-09-01T22:51:04;24.60;99.70
50907;DHT22;36882;27.680;85.304;2022-09-01T22:53:36;24.60;99.90
50907;DHT22;36882;27.680;85.304;2022-09-01T22:56:19;24.60;99.80
50907;DHT22;36882;27.680;85.304;2022-09-01T22:58:52;24.50;99.90
50907;DHT22;36882;27.680;85.304;2022-09-01T23:01:26;24.50;99.90
50907;DHT22;36882;27.680;85.304;2022-09-01T23:04:02;24.50;99.90
50907;DHT22;36882;27.680;85.304;2022-09-01T23:06:36;24.40;99.90
50907;DHT22;36882;27.680;85.304;2022-09-01T23:09:08;24.50;99.90
50907;DHT22;36882;27.680;85.304;2022-09-01T23:11:38;24.50;99.90
50907;DHT22;36882;27.680;85.304;2022-09-01T23:14:09;24.50;99.90
50907;DHT22;36882;27.680;85.304;2022-09-01T23:16:40;24.40;99.90
50907;DHT22;36882;27.680;85.304;2022-09-01T23:19:10;24.40;99.90
50907;DHT22;36882;27.680;85.304;2022-09-01T23:21:41;24.40;99.90
50907;DHT22;36882;27.680;85.304;2022-09-01T23:24:11;24.40;99.90
50907;DHT22;36882;27.680;85.304;2022-09-01T23:26:42;24.40;99.90
50907;DHT22;36882;27.680;85.304;2022-09-01T23:29:14;24.40;99.90
50907;DHT22;36882;27.680;85.304;2022-09-01T23:31:44;24.40;99.90
50907;DHT22;36882;27.680;85.304;2022-09-01T23:34:15;24.40;99.90
50907;DHT22;36882;27.680;85.304;2022-09-01T23:36:46;24.50;99.90
50907;DHT22;36882;27.680;85.304;2022-09-01T23:39:16;24.40;99.90
50907;DHT22;36882;27.680;85.304;2022-09-01T23:41:46;24.40;99.80
50907;DHT22;36882;27.680;85.304;2022-09-01T23:44:17;24.40;99.90
50907;DHT22;36882;27.680;85.304;2022-09-01T23:46:47;24.40;99.90
50907;DHT22;36882;27.680;85.304;2022-09-01T23:49:18;24.40;99.90
50907;DHT22;36882;27.680;85.304;2022-09-01T23:51:48;24.40;99.90
50907;DHT22;36882;27.680;85.304;2022-09-01T23:54:22;24.40;99.90
50907;DHT22;36882;27.680;85.304;2022-09-01T23:56:52;24.40;99.90
50907;DHT22;36882;27.680;85.304;2022-09-01T23:59:22;24.40;99.90
